sensor_id;sensor_type;location;lat;lon;timestamp;P1;durP1;ratioP1;P2;durP2;ratioP2
21751;SDS011;11038;50.940;20.564;2022-10-16T00:01:29;42.93;;;26.73;;
21751;SDS011;11038;50.940;20.564;2022-10-16T00:03:04;37.73;;;26.00;;
21751;SDS011;11038;50.940;20.564;2022-10-16T00:04:38;38.67;;;25.20;;
21751;SDS011;11038;50.940;20.564;2022-10-16T00:06:11;36.37;;;23.87;;
21751;SDS011;11038;50.940;20.564;2022-10-16T00:07:51;33.30;;;23.53;;
21751;SDS011;11038;50.940;20.564;2022-10-16T00:09:24;37.53;;;24.63;;
21751;SDS011;11038;50.940;20.564;2022-10-16T00:11:03;37.97;;;25.73;;
21751;SDS011;11038;50.940;20.564;2022-10-16T00:12:51;41.47;;;24.63;;
21751;SDS011;11038;50.940;20.564;2022-10-16T00:14:23;39.07;;;25.13;;
21751;SDS011;11038;50.940;20.564;2022-10-16T00:15:56;40.57;;;25.93;;
21751;SDS011;11038;50.940;20.564;2022-10-16T00:17:30;40.57;;;26.83;;
21751;SDS011;11038;50.940;20.564;2022-10-16T00:19:02;39.63;;;26.03;;
21751;SDS011;11038;50.940;20.564;2022-10-16T00:20:35;46.73;;;27.77;;
21751;SDS011;11038;50.940;20.564;2022-10-16T00:22:08;44.47;;;27.27;;
21751;SDS011;11038;50.940;20.564;2022-10-16T00:23:40;38.23;;;26.33;;
21751;SDS011;11038;50.940;20.564;2022-10-16T00:25:26;38.27;;;25.07;;
21751;SDS011;11038;50.940;20.564;2022-10-16T00:26:58;41.27;;;25.43;;
21751;SDS011;11038;50.940;20.564;2022-10-16T00:28:31;44.10;;;25.73;;
21751;SDS011;11038;50.940;20.564;2022-10-16T00:30:04;38.67;;;24.97;;
21751;SDS011;11038;50.940;20.564;2022-10-16T00:31:37;43.90;;;25.23;;
21751;SDS011;11038;50.940;20.564;2022-10-16T00:33:09;37.27;;;24.57;;
21751;SDS011;11038;50.940;20.564;2022-10-16T00:34:42;37.70;;;25.03;;
21751;SDS011;11038;50.940;20.564;2022-10-16T00:36:16;34.17;;;24.10;;
21751;SDS011;11038;50.940;20.564;2022-10-16T00:37:52;38.97;;;25.57;;
21751;SDS011;11038;50.940;20.564;2022-10-16T00:39:24;33.87;;;24.20;;
21751;SDS011;11038;50.940;20.564;2022-10-16T00:40:57;38.50;;;24.60;;
21751;SDS011;11038;50.940;20.564;2022-10-16T00:42:29;37.57;;;25.03;;
21751;SDS011;11038;50.940;20.564;2022-10-16T00:44:02;41.63;;;25.73;;
21751;SDS011;11038;50.940;20.564;2022-10-16T00:47:52;37.53;;;24.37;;
21751;SDS011;11038;50.940;20.564;2022-10-16T00:49:27;35.70;;;23.97;;
21751;SDS011;11038;50.940;20.564;2022-10-16T00:51:01;37.60;;;23.87;;
21751;SDS011;11038;50.940;20.564;2022-10-16T00:52:33;38.67;;;25.07;;
21751;SDS011;11038;50.940;20.564;2022-10-16T00:54:12;37.03;;;25.07;;
21751;SDS011;11038;50.940;20.564;2022-10-16T00:55:49;42.67;;;24.30;;
21751;SDS011;11038;50.940;20.564;2022-10-16T00:57:21;38.17;;;24.40;;
21751;SDS011;11038;50.940;20.564;2022-10-16T00:58:54;43.00;;;26.10;;
21751;SDS011;11038;50.940;20.564;2022-10-16T01:00:26;39.13;;;25.53;;
21751;SDS011;11038;50.940;20.564;2022-10-16T01:01:59;52.50;;;29.40;;
21751;SDS011;11038;50.940;20.564;2022-10-16T01:03:35;40.53;;;25.87;;
21751;SDS011;11038;50.940;20.564;2022-10-16T01:05:08;35.67;;;24.23;;
21751;SDS011;11038;50.940;20.564;2022-10-16T01:06:50;35.50;;;24.53;;
21751;SDS011;11038;50.940;20.564;2022-10-16T01:09:11;38.13;;;25.93;;
21751;SDS011;11038;50.940;20.564;2022-10-16T01:12:59;35.57;;;24.13;;
21751;SDS011;11038;50.940;20.564;2022-10-16T01:15:07;33.97;;;23.17;;
21751;SDS011;11038;50.940;20.564;2022-10-16T01:18:54;39.03;;;25.33;;
21751;SDS011;11038;50.940;20.564;2022-10-16T01:24:48;31.83;;;22.10;;
21751;SDS011;11038;50.940;20.564;2022-10-16T01:26:30;34.87;;;22.60;;
21751;SDS011;11038;50.940;20.564;2022-10-16T01:28:09;34.77;;;23.43;;
21751;SDS011;11038;50.940;20.564;2022-10-16T01:32:02;34.07;;;23.20;;
21751;SDS011;11038;50.940;20.564;2022-10-16T01:33:48;33.80;;;22.93;;
21751;SDS011;11038;50.940;20.564;2022-10-16T01:35:45;38.77;;;24.17;;
21751;SDS011;11038;50.940;20.564;2022-10-16T01:37:38;35.70;;;22.87;;
21751;SDS011;11038;50.940;20.564;2022-10-16T01:39:20;35.13;;;22.00;;
21751;SDS011;11038;50.940;20.564;2022-10-16T01:41:13;34.40;;;23.07;;
21751;SDS011;11038;50.940;20.564;2022-10-16T01:43:03;43.93;;;26.83;;
21751;SDS011;11038;50.940;20.564;2022-10-16T01:45:02;35.93;;;23.20;;
21751;SDS011;11038;50.940;20.564;2022-10-16T01:46:39;32.80;;;22.60;;
21751;SDS011;11038;50.940;20.564;2022-10-16T01:48:18;35.00;;;23.30;;
21751;SDS011;11038;50.940;20.564;2022-10-16T01:49:54;33.93;;;22.33;;
21751;SDS011;11038;50.940;20.564;2022-10-16T01:51:29;38.63;;;22.13;;
21751;SDS011;11038;50.940;20.564;2022-10-16T01:53:02;30.67;;;22.87;;
21751;SDS011;11038;50.940;20.564;2022-10-16T01:54:36;30.10;;;22.00;;
21751;SDS011;11038;50.940;20.564;2022-10-16T01:56:14;34.47;;;23.27;;
21751;SDS011;11038;50.940;20.564;2022-10-16T01:57:49;33.67;;;21.93;;
21751;SDS011;11038;50.940;20.564;2022-10-16T01:59:25;31.67;;;22.37;;
21751;SDS011;11038;50.940;20.564;2022-10-16T02:01:02;33.60;;;22.27;;
21751;SDS011;11038;50.940;20.564;2022-10-16T02:02:39;32.63;;;22.43;;
21751;SDS011;11038;50.940;20.564;2022-10-16T02:06:21;35.67;;;21.93;;
21751;SDS011;11038;50.940;20.564;2022-10-16T02:07:54;32.10;;;23.00;;
21751;SDS011;11038;50.940;20.564;2022-10-16T02:09:30;34.60;;;22.07;;
21751;SDS011;11038;50.940;20.564;2022-10-16T02:11:05;30.13;;;22.17;;
21751;SDS011;11038;50.940;20.564;2022-10-16T02:12:39;33.13;;;22.43;;
21751;SDS011;11038;50.940;20.564;2022-10-16T02:14:37;32.37;;;22.50;;
21751;SDS011;11038;50.940;20.564;2022-10-16T02:16:12;34.60;;;21.73;;
21751;SDS011;11038;50.940;20.564;2022-10-16T02:24:58;31.23;;;20.83;;
21751;SDS011;11038;50.940;20.564;2022-10-16T02:28:39;31.07;;;21.50;;
21751;SDS011;11038;50.940;20.564;2022-10-16T02:30:25;30.20;;;21.47;;
21751;SDS011;11038;50.940;20.564;2022-10-16T02:32:27;30.00;;;23.00;;
21751;SDS011;11038;50.940;20.564;2022-10-16T02:34:04;38.00;;;23.77;;
21751;SDS011;11038;50.940;20.564;2022-10-16T02:35:39;34.90;;;25.20;;
21751;SDS011;11038;50.940;20.564;2022-10-16T02:37:14;31.97;;;22.63;;
21751;SDS011;11038;50.940;20.564;2022-10-16T02:38:49;38.63;;;25.10;;
21751;SDS011;11038;50.940;20.564;2022-10-16T02:40:23;37.33;;;24.80;;
21751;SDS011;11038;50.940;20.564;2022-10-16T02:41:57;33.73;;;24.80;;
21751;SDS011;11038;50.940;20.564;2022-10-16T02:43:30;35.43;;;25.83;;
21751;SDS011;11038;50.940;20.564;2022-10-16T02:45:03;34.77;;;24.90;;
21751;SDS011;11038;50.940;20.564;2022-10-16T02:46:37;33.70;;;24.23;;
21751;SDS011;11038;50.940;20.564;2022-10-16T02:48:09;36.10;;;24.43;;
21751;SDS011;11038;50.940;20.564;2022-10-16T02:49:41;35.63;;;24.10;;
21751;SDS011;11038;50.940;20.564;2022-10-16T02:51:13;32.10;;;22.70;;
21751;SDS011;11038;50.940;20.564;2022-10-16T02:52:45;29.80;;;22.00;;
21751;SDS011;11038;50.940;20.564;2022-10-16T02:54:18;32.87;;;21.53;;
21751;SDS011;11038;50.940;20.564;2022-10-16T02:55:50;34.47;;;23.03;;
21751;SDS011;11038;50.940;20.564;2022-10-16T02:57:23;34.30;;;23.53;;
21751;SDS011;11038;50.940;20.564;2022-10-16T02:58:55;33.60;;;23.43;;
21751;SDS011;11038;50.940;20.564;2022-10-16T03:00:28;35.17;;;23.13;;
21751;SDS011;11038;50.940;20.564;2022-10-16T03:02:00;38.03;;;24.37;;
21751;SDS011;11038;50.940;20.564;2022-10-16T03:03:32;38.23;;;24.70;;
21751;SDS011;11038;50.940;20.564;2022-10-16T03:05:05;34.53;;;25.50;;
21751;SDS011;11038;50.940;20.564;2022-10-16T03:06:38;35.10;;;25.07;;
21751;SDS011;11038;50.940;20.564;2022-10-16T03:08:11;38.27;;;24.97;;
21751;SDS011;11038;50.940;20.564;2022-10-16T03:09:44;35.00;;;24.47;;
21751;SDS011;11038;50.940;20.564;2022-10-16T03:11:16;41.80;;;25.30;;
21751;SDS011;11038;50.940;20.564;2022-10-16T03:12:49;34.33;;;25.43;;
21751;SDS011;11038;50.940;20.564;2022-10-16T03:14:21;34.43;;;25.57;;
21751;SDS011;11038;50.940;20.564;2022-10-16T03:15:53;34.37;;;24.43;;
21751;SDS011;11038;50.940;20.564;2022-10-16T03:17:25;35.93;;;24.73;;
21751;SDS011;11038;50.940;20.564;2022-10-16T03:18:58;33.37;;;24.37;;
21751;SDS011;11038;50.940;20.564;2022-10-16T03:20:30;34.13;;;24.83;;
21751;SDS011;11038;50.940;20.564;2022-10-16T03:22:03;35.70;;;24.13;;
21751;SDS011;11038;50.940;20.564;2022-10-16T03:23:35;42.67;;;26.80;;
21751;SDS011;11038;50.940;20.564;2022-10-16T03:25:08;33.17;;;24.70;;
21751;SDS011;11038;50.940;20.564;2022-10-16T03:26:40;37.67;;;24.47;;
21751;SDS011;11038;50.940;20.564;2022-10-16T03:28:15;34.20;;;24.10;;
21751;SDS011;11038;50.940;20.564;2022-10-16T03:29:48;36.80;;;24.07;;
21751;SDS011;11038;50.940;20.564;2022-10-16T03:31:20;33.50;;;23.73;;
21751;SDS011;11038;50.940;20.564;2022-10-16T03:32:53;35.43;;;23.10;;
21751;SDS011;11038;50.940;20.564;2022-10-16T03:34:25;30.50;;;22.47;;
21751;SDS011;11038;50.940;20.564;2022-10-16T03:35:59;34.67;;;24.53;;
21751;SDS011;11038;50.940;20.564;2022-10-16T03:37:31;49.77;;;31.03;;
21751;SDS011;11038;50.940;20.564;2022-10-16T03:39:03;42.97;;;25.60;;
21751;SDS011;11038;50.940;20.564;2022-10-16T03:40:36;38.20;;;23.40;;
21751;SDS011;11038;50.940;20.564;2022-10-16T03:42:08;40.10;;;25.53;;
21751;SDS011;11038;50.940;20.564;2022-10-16T03:43:40;33.73;;;22.80;;
21751;SDS011;11038;50.940;20.564;2022-10-16T03:45:13;35.00;;;24.13;;
21751;SDS011;11038;50.940;20.564;2022-10-16T03:46:45;31.07;;;22.30;;
21751;SDS011;11038;50.940;20.564;2022-10-16T03:48:18;35.40;;;23.83;;
21751;SDS011;11038;50.940;20.564;2022-10-16T03:49:51;33.43;;;23.50;;
21751;SDS011;11038;50.940;20.564;2022-10-16T03:51:23;31.30;;;22.10;;
21751;SDS011;11038;50.940;20.564;2022-10-16T03:52:55;29.00;;;21.30;;
21751;SDS011;11038;50.940;20.564;2022-10-16T03:54:28;28.50;;;21.00;;
21751;SDS011;11038;50.940;20.564;2022-10-16T03:56:00;32.80;;;22.13;;
21751;SDS011;11038;50.940;20.564;2022-10-16T03:57:32;33.63;;;22.67;;
21751;SDS011;11038;50.940;20.564;2022-10-16T03:59:05;34.77;;;23.50;;
21751;SDS011;11038;50.940;20.564;2022-10-16T04:00:41;33.13;;;20.53;;
21751;SDS011;11038;50.940;20.564;2022-10-16T04:02:14;33.40;;;21.50;;
21751;SDS011;11038;50.940;20.564;2022-10-16T04:03:46;31.13;;;21.17;;
21751;SDS011;11038;50.940;20.564;2022-10-16T04:05:19;31.77;;;20.30;;
21751;SDS011;11038;50.940;20.564;2022-10-16T04:06:52;28.00;;;18.53;;
21751;SDS011;11038;50.940;20.564;2022-10-16T04:08:24;34.13;;;21.30;;
21751;SDS011;11038;50.940;20.564;2022-10-16T04:09:56;28.97;;;20.27;;
21751;SDS011;11038;50.940;20.564;2022-10-16T04:11:30;29.73;;;21.10;;
21751;SDS011;11038;50.940;20.564;2022-10-16T04:13:02;33.40;;;21.10;;
21751;SDS011;11038;50.940;20.564;2022-10-16T04:14:34;28.20;;;19.60;;
21751;SDS011;11038;50.940;20.564;2022-10-16T04:16:07;29.77;;;20.70;;
21751;SDS011;11038;50.940;20.564;2022-10-16T04:17:39;28.10;;;18.90;;
21751;SDS011;11038;50.940;20.564;2022-10-16T04:19:11;30.43;;;19.83;;
21751;SDS011;11038;50.940;20.564;2022-10-16T04:20:43;27.53;;;19.60;;
21751;SDS011;11038;50.940;20.564;2022-10-16T04:22:16;26.03;;;19.30;;
21751;SDS011;11038;50.940;20.564;2022-10-16T04:23:48;27.37;;;18.97;;
21751;SDS011;11038;50.940;20.564;2022-10-16T04:25:21;28.83;;;19.40;;
21751;SDS011;11038;50.940;20.564;2022-10-16T04:26:53;30.23;;;18.87;;
21751;SDS011;11038;50.940;20.564;2022-10-16T04:28:26;31.13;;;18.93;;
21751;SDS011;11038;50.940;20.564;2022-10-16T04:29:59;27.07;;;19.37;;
21751;SDS011;11038;50.940;20.564;2022-10-16T04:31:32;32.00;;;19.60;;
21751;SDS011;11038;50.940;20.564;2022-10-16T04:33:05;31.40;;;19.47;;
21751;SDS011;11038;50.940;20.564;2022-10-16T04:34:38;26.80;;;18.90;;
21751;SDS011;11038;50.940;20.564;2022-10-16T04:36:11;29.70;;;19.13;;
21751;SDS011;11038;50.940;20.564;2022-10-16T04:37:44;35.17;;;20.43;;
21751;SDS011;11038;50.940;20.564;2022-10-16T04:39:17;27.63;;;18.43;;
21751;SDS011;11038;50.940;20.564;2022-10-16T04:40:49;30.77;;;19.30;;
21751;SDS011;11038;50.940;20.564;2022-10-16T04:42:22;27.63;;;17.63;;
21751;SDS011;11038;50.940;20.564;2022-10-16T04:43:54;24.50;;;18.03;;
21751;SDS011;11038;50.940;20.564;2022-10-16T04:45:26;26.23;;;18.83;;
21751;SDS011;11038;50.940;20.564;2022-10-16T04:46:58;24.03;;;18.03;;
21751;SDS011;11038;50.940;20.564;2022-10-16T04:48:31;25.57;;;17.37;;
21751;SDS011;11038;50.940;20.564;2022-10-16T04:50:04;20.70;;;14.37;;
21751;SDS011;11038;50.940;20.564;2022-10-16T04:51:38;26.13;;;18.20;;
21751;SDS011;11038;50.940;20.564;2022-10-16T04:53:10;26.43;;;18.83;;
21751;SDS011;11038;50.940;20.564;2022-10-16T04:54:42;25.03;;;18.43;;
21751;SDS011;11038;50.940;20.564;2022-10-16T04:56:16;30.13;;;18.43;;
21751;SDS011;11038;50.940;20.564;2022-10-16T04:57:48;29.90;;;20.13;;
21751;SDS011;11038;50.940;20.564;2022-10-16T04:59:21;23.87;;;18.53;;
21751;SDS011;11038;50.940;20.564;2022-10-16T05:00:55;30.90;;;19.83;;
21751;SDS011;11038;50.940;20.564;2022-10-16T05:02:27;33.33;;;18.63;;
21751;SDS011;11038;50.940;20.564;2022-10-16T05:03:59;28.03;;;17.53;;
21751;SDS011;11038;50.940;20.564;2022-10-16T05:05:32;27.73;;;19.43;;
21751;SDS011;11038;50.940;20.564;2022-10-16T05:07:04;25.27;;;17.63;;
21751;SDS011;11038;50.940;20.564;2022-10-16T05:08:37;27.40;;;17.80;;
21751;SDS011;11038;50.940;20.564;2022-10-16T05:10:09;29.17;;;19.13;;
21751;SDS011;11038;50.940;20.564;2022-10-16T05:11:41;29.33;;;18.63;;
21751;SDS011;11038;50.940;20.564;2022-10-16T05:13:14;25.53;;;18.67;;
21751;SDS011;11038;50.940;20.564;2022-10-16T05:14:46;26.57;;;19.10;;
21751;SDS011;11038;50.940;20.564;2022-10-16T05:16:18;26.87;;;19.23;;
21751;SDS011;11038;50.940;20.564;2022-10-16T05:17:54;25.63;;;18.40;;
21751;SDS011;11038;50.940;20.564;2022-10-16T05:19:27;31.70;;;18.90;;
21751;SDS011;11038;50.940;20.564;2022-10-16T05:20:59;27.00;;;19.00;;
21751;SDS011;11038;50.940;20.564;2022-10-16T05:22:32;24.40;;;18.37;;
21751;SDS011;11038;50.940;20.564;2022-10-16T05:24:04;30.50;;;18.17;;
21751;SDS011;11038;50.940;20.564;2022-10-16T05:25:36;28.37;;;19.93;;
21751;SDS011;11038;50.940;20.564;2022-10-16T05:27:09;28.00;;;20.47;;
21751;SDS011;11038;50.940;20.564;2022-10-16T05:28:42;28.70;;;19.93;;
21751;SDS011;11038;50.940;20.564;2022-10-16T05:30:15;25.90;;;18.97;;
21751;SDS011;11038;50.940;20.564;2022-10-16T05:31:50;30.07;;;18.87;;
21751;SDS011;11038;50.940;20.564;2022-10-16T05:33:25;30.40;;;20.30;;
21751;SDS011;11038;50.940;20.564;2022-10-16T05:34:57;30.43;;;20.67;;
21751;SDS011;11038;50.940;20.564;2022-10-16T05:36:31;31.30;;;20.13;;
21751;SDS011;11038;50.940;20.564;2022-10-16T05:38:03;27.53;;;19.50;;
21751;SDS011;11038;50.940;20.564;2022-10-16T05:39:35;33.33;;;22.97;;
21751;SDS011;11038;50.940;20.564;2022-10-16T05:41:08;30.10;;;21.17;;
21751;SDS011;11038;50.940;20.564;2022-10-16T05:42:56;28.07;;;19.33;;
21751;SDS011;11038;50.940;20.564;2022-10-16T05:44:28;30.20;;;21.53;;
21751;SDS011;11038;50.940;20.564;2022-10-16T05:46:04;29.83;;;20.90;;
21751;SDS011;11038;50.940;20.564;2022-10-16T05:47:38;29.80;;;20.57;;
21751;SDS011;11038;50.940;20.564;2022-10-16T05:49:11;29.63;;;20.67;;
21751;SDS011;11038;50.940;20.564;2022-10-16T05:50:43;30.57;;;20.40;;
21751;SDS011;11038;50.940;20.564;2022-10-16T05:52:15;28.60;;;19.27;;
21751;SDS011;11038;50.940;20.564;2022-10-16T05:53:47;31.13;;;20.17;;
21751;SDS011;11038;50.940;20.564;2022-10-16T05:55:20;28.93;;;19.90;;
21751;SDS011;11038;50.940;20.564;2022-10-16T05:56:52;29.77;;;19.57;;
21751;SDS011;11038;50.940;20.564;2022-10-16T05:58:24;26.90;;;17.80;;
21751;SDS011;11038;50.940;20.564;2022-10-16T06:00:00;26.70;;;18.47;;
21751;SDS011;11038;50.940;20.564;2022-10-16T06:01:34;28.57;;;18.67;;
21751;SDS011;11038;50.940;20.564;2022-10-16T06:03:06;25.57;;;18.40;;
21751;SDS011;11038;50.940;20.564;2022-10-16T06:04:39;27.50;;;18.03;;
21751;SDS011;11038;50.940;20.564;2022-10-16T06:06:12;26.63;;;16.97;;
21751;SDS011;11038;50.940;20.564;2022-10-16T06:07:51;22.43;;;16.30;;
21751;SDS011;11038;50.940;20.564;2022-10-16T06:09:23;18.97;;;14.83;;
21751;SDS011;11038;50.940;20.564;2022-10-16T06:11:02;22.93;;;14.37;;
21751;SDS011;11038;50.940;20.564;2022-10-16T06:12:41;19.30;;;14.00;;
21751;SDS011;11038;50.940;20.564;2022-10-16T06:14:13;24.47;;;13.87;;
21751;SDS011;11038;50.940;20.564;2022-10-16T06:15:45;17.07;;;12.70;;
21751;SDS011;11038;50.940;20.564;2022-10-16T06:17:18;20.03;;;14.20;;
21751;SDS011;11038;50.940;20.564;2022-10-16T06:18:50;19.30;;;13.00;;
21751;SDS011;11038;50.940;20.564;2022-10-16T06:20:25;23.50;;;13.10;;
21751;SDS011;11038;50.940;20.564;2022-10-16T06:21:58;20.30;;;13.87;;
21751;SDS011;11038;50.940;20.564;2022-10-16T06:23:30;18.93;;;11.80;;
21751;SDS011;11038;50.940;20.564;2022-10-16T06:25:03;20.17;;;14.00;;
21751;SDS011;11038;50.940;20.564;2022-10-16T06:26:36;18.23;;;12.80;;
21751;SDS011;11038;50.940;20.564;2022-10-16T06:28:09;21.13;;;12.77;;
21751;SDS011;11038;50.940;20.564;2022-10-16T06:29:42;17.57;;;12.93;;
21751;SDS011;11038;50.940;20.564;2022-10-16T06:31:15;21.77;;;11.30;;
21751;SDS011;11038;50.940;20.564;2022-10-16T06:32:48;19.10;;;12.97;;
21751;SDS011;11038;50.940;20.564;2022-10-16T06:34:20;17.93;;;12.17;;
21751;SDS011;11038;50.940;20.564;2022-10-16T06:35:53;19.33;;;12.40;;
21751;SDS011;11038;50.940;20.564;2022-10-16T06:37:31;19.67;;;13.67;;
21751;SDS011;11038;50.940;20.564;2022-10-16T06:39:04;19.83;;;12.80;;
21751;SDS011;11038;50.940;20.564;2022-10-16T06:40:38;18.93;;;13.07;;
21751;SDS011;11038;50.940;20.564;2022-10-16T06:42:10;22.23;;;12.57;;
21751;SDS011;11038;50.940;20.564;2022-10-16T06:43:43;22.40;;;13.93;;
21751;SDS011;11038;50.940;20.564;2022-10-16T06:45:18;19.83;;;12.90;;
21751;SDS011;11038;50.940;20.564;2022-10-16T06:46:50;19.67;;;12.90;;
21751;SDS011;11038;50.940;20.564;2022-10-16T06:48:23;19.53;;;13.20;;
21751;SDS011;11038;50.940;20.564;2022-10-16T06:49:57;18.27;;;13.20;;
21751;SDS011;11038;50.940;20.564;2022-10-16T06:51:30;18.33;;;13.40;;
21751;SDS011;11038;50.940;20.564;2022-10-16T06:53:03;20.57;;;12.60;;
21751;SDS011;11038;50.940;20.564;2022-10-16T06:54:36;17.80;;;11.93;;
21751;SDS011;11038;50.940;20.564;2022-10-16T06:56:14;18.83;;;12.23;;
21751;SDS011;11038;50.940;20.564;2022-10-16T06:57:50;19.80;;;12.77;;
21751;SDS011;11038;50.940;20.564;2022-10-16T06:59:23;18.70;;;11.47;;
21751;SDS011;11038;50.940;20.564;2022-10-16T07:00:55;21.63;;;12.67;;
21751;SDS011;11038;50.940;20.564;2022-10-16T07:02:28;17.27;;;12.60;;
21751;SDS011;11038;50.940;20.564;2022-10-16T07:04:01;18.30;;;12.57;;
21751;SDS011;11038;50.940;20.564;2022-10-16T07:05:38;17.23;;;11.40;;
21751;SDS011;11038;50.940;20.564;2022-10-16T07:07:11;19.57;;;12.50;;
21751;SDS011;11038;50.940;20.564;2022-10-16T07:08:44;17.93;;;11.80;;
21751;SDS011;11038;50.940;20.564;2022-10-16T07:10:18;22.60;;;12.23;;
21751;SDS011;11038;50.940;20.564;2022-10-16T07:11:51;18.13;;;11.20;;
21751;SDS011;11038;50.940;20.564;2022-10-16T07:13:23;19.57;;;12.40;;
21751;SDS011;11038;50.940;20.564;2022-10-16T07:14:56;20.40;;;13.83;;
21751;SDS011;11038;50.940;20.564;2022-10-16T07:16:29;17.93;;;13.00;;
21751;SDS011;11038;50.940;20.564;2022-10-16T07:18:04;20.23;;;12.70;;
21751;SDS011;11038;50.940;20.564;2022-10-16T07:19:36;21.37;;;12.77;;
21751;SDS011;11038;50.940;20.564;2022-10-16T07:21:10;21.00;;;13.00;;
21751;SDS011;11038;50.940;20.564;2022-10-16T07:22:52;19.90;;;12.67;;
21751;SDS011;11038;50.940;20.564;2022-10-16T07:24:25;23.30;;;12.73;;
21751;SDS011;11038;50.940;20.564;2022-10-16T07:25:57;18.37;;;13.43;;
21751;SDS011;11038;50.940;20.564;2022-10-16T07:27:30;19.40;;;13.80;;
21751;SDS011;11038;50.940;20.564;2022-10-16T07:29:02;21.37;;;14.20;;
21751;SDS011;11038;50.940;20.564;2022-10-16T07:30:35;19.80;;;14.00;;
21751;SDS011;11038;50.940;20.564;2022-10-16T07:32:08;16.80;;;12.53;;
21751;SDS011;11038;50.940;20.564;2022-10-16T07:33:41;20.03;;;13.00;;
21751;SDS011;11038;50.940;20.564;2022-10-16T07:35:16;18.20;;;13.10;;
21751;SDS011;11038;50.940;20.564;2022-10-16T07:36:49;18.57;;;12.70;;
21751;SDS011;11038;50.940;20.564;2022-10-16T07:38:22;19.47;;;12.63;;
21751;SDS011;11038;50.940;20.564;2022-10-16T07:39:54;18.43;;;12.43;;
21751;SDS011;11038;50.940;20.564;2022-10-16T07:41:26;18.83;;;13.57;;
21751;SDS011;11038;50.940;20.564;2022-10-16T07:42:59;16.93;;;12.00;;
21751;SDS011;11038;50.940;20.564;2022-10-16T07:44:33;18.40;;;13.13;;
21751;SDS011;11038;50.940;20.564;2022-10-16T07:46:06;21.13;;;12.30;;
21751;SDS011;11038;50.940;20.564;2022-10-16T07:47:38;21.23;;;13.03;;
21751;SDS011;11038;50.940;20.564;2022-10-16T07:49:10;18.30;;;13.07;;
21751;SDS011;11038;50.940;20.564;2022-10-16T07:50:43;18.77;;;12.73;;
21751;SDS011;11038;50.940;20.564;2022-10-16T07:52:16;16.53;;;12.23;;
21751;SDS011;11038;50.940;20.564;2022-10-16T07:53:48;18.17;;;12.97;;
21751;SDS011;11038;50.940;20.564;2022-10-16T07:55:21;23.80;;;12.93;;
21751;SDS011;11038;50.940;20.564;2022-10-16T07:56:53;21.97;;;12.90;;
21751;SDS011;11038;50.940;20.564;2022-10-16T07:58:26;21.70;;;12.90;;
21751;SDS011;11038;50.940;20.564;2022-10-16T07:59:59;19.67;;;12.93;;
21751;SDS011;11038;50.940;20.564;2022-10-16T08:01:32;17.03;;;12.00;;
21751;SDS011;11038;50.940;20.564;2022-10-16T08:03:05;18.43;;;11.73;;
21751;SDS011;11038;50.940;20.564;2022-10-16T08:04:37;21.60;;;13.00;;
21751;SDS011;11038;50.940;20.564;2022-10-16T08:06:09;18.53;;;12.20;;
21751;SDS011;11038;50.940;20.564;2022-10-16T08:07:42;18.40;;;12.53;;
21751;SDS011;11038;50.940;20.564;2022-10-16T08:09:14;18.83;;;12.67;;
21751;SDS011;11038;50.940;20.564;2022-10-16T08:10:46;21.23;;;13.10;;
21751;SDS011;11038;50.940;20.564;2022-10-16T08:12:18;15.47;;;11.73;;
21751;SDS011;11038;50.940;20.564;2022-10-16T08:13:51;18.13;;;13.17;;
21751;SDS011;11038;50.940;20.564;2022-10-16T08:15:23;20.33;;;12.73;;
21751;SDS011;11038;50.940;20.564;2022-10-16T08:16:56;25.87;;;12.87;;
21751;SDS011;11038;50.940;20.564;2022-10-16T08:18:28;15.93;;;12.27;;
21751;SDS011;11038;50.940;20.564;2022-10-16T08:20:00;16.90;;;12.10;;
21751;SDS011;11038;50.940;20.564;2022-10-16T08:21:33;18.77;;;12.23;;
21751;SDS011;11038;50.940;20.564;2022-10-16T08:23:05;15.87;;;11.70;;
21751;SDS011;11038;50.940;20.564;2022-10-16T08:24:38;15.83;;;11.73;;
21751;SDS011;11038;50.940;20.564;2022-10-16T08:26:10;18.20;;;12.90;;
21751;SDS011;11038;50.940;20.564;2022-10-16T08:27:43;18.73;;;12.87;;
21751;SDS011;11038;50.940;20.564;2022-10-16T08:29:16;17.33;;;11.93;;
21751;SDS011;11038;50.940;20.564;2022-10-16T08:30:48;15.70;;;10.97;;
21751;SDS011;11038;50.940;20.564;2022-10-16T08:32:20;18.23;;;11.90;;
21751;SDS011;11038;50.940;20.564;2022-10-16T08:33:58;18.90;;;12.30;;
21751;SDS011;11038;50.940;20.564;2022-10-16T08:35:30;17.63;;;11.87;;
21751;SDS011;11038;50.940;20.564;2022-10-16T08:37:02;17.20;;;12.17;;
21751;SDS011;11038;50.940;20.564;2022-10-16T08:38:34;20.97;;;12.37;;
21751;SDS011;11038;50.940;20.564;2022-10-16T08:40:10;17.07;;;11.77;;
21751;SDS011;11038;50.940;20.564;2022-10-16T08:47:25;16.63;;;11.80;;
21751;SDS011;11038;50.940;20.564;2022-10-16T08:49:14;17.80;;;11.97;;
21751;SDS011;11038;50.940;20.564;2022-10-16T08:50:47;18.40;;;11.70;;
21751;SDS011;11038;50.940;20.564;2022-10-16T08:52:22;18.27;;;12.20;;
21751;SDS011;11038;50.940;20.564;2022-10-16T08:54:05;17.37;;;11.83;;
21751;SDS011;11038;50.940;20.564;2022-10-16T08:55:45;17.50;;;11.57;;
21751;SDS011;11038;50.940;20.564;2022-10-16T08:57:23;18.03;;;11.63;;
21751;SDS011;11038;50.940;20.564;2022-10-16T08:59:03;21.73;;;11.57;;
21751;SDS011;11038;50.940;20.564;2022-10-16T09:00:43;16.97;;;11.73;;
21751;SDS011;11038;50.940;20.564;2022-10-16T09:06:44;17.30;;;11.67;;
21751;SDS011;11038;50.940;20.564;2022-10-16T09:11:39;17.73;;;11.40;;
21751;SDS011;11038;50.940;20.564;2022-10-16T09:15:45;17.27;;;11.40;;
21751;SDS011;11038;50.940;20.564;2022-10-16T09:19:21;17.53;;;10.70;;
21751;SDS011;11038;50.940;20.564;2022-10-16T09:21:16;15.10;;;10.37;;
21751;SDS011;11038;50.940;20.564;2022-10-16T09:23:08;17.47;;;11.20;;
21751;SDS011;11038;50.940;20.564;2022-10-16T09:24:51;17.00;;;10.33;;
21751;SDS011;11038;50.940;20.564;2022-10-16T09:26:24;20.50;;;10.83;;
21751;SDS011;11038;50.940;20.564;2022-10-16T09:27:57;14.67;;;10.80;;
21751;SDS011;11038;50.940;20.564;2022-10-16T09:29:29;16.10;;;9.97;;
21751;SDS011;11038;50.940;20.564;2022-10-16T09:31:02;15.20;;;9.90;;
21751;SDS011;11038;50.940;20.564;2022-10-16T09:32:34;15.23;;;10.07;;
21751;SDS011;11038;50.940;20.564;2022-10-16T09:34:08;15.27;;;11.00;;
21751;SDS011;11038;50.940;20.564;2022-10-16T09:35:56;13.80;;;9.87;;
21751;SDS011;11038;50.940;20.564;2022-10-16T09:37:32;18.53;;;10.20;;
21751;SDS011;11038;50.940;20.564;2022-10-16T09:39:05;15.00;;;10.07;;
21751;SDS011;11038;50.940;20.564;2022-10-16T09:40:43;15.30;;;9.60;;
21751;SDS011;11038;50.940;20.564;2022-10-16T09:42:36;14.27;;;10.03;;
21751;SDS011;11038;50.940;20.564;2022-10-16T09:46:00;15.73;;;10.00;;
21751;SDS011;11038;50.940;20.564;2022-10-16T09:47:37;16.93;;;10.00;;
21751;SDS011;11038;50.940;20.564;2022-10-16T09:49:25;14.17;;;10.40;;
21751;SDS011;11038;50.940;20.564;2022-10-16T09:50:59;16.63;;;9.53;;